createdAt,value
2022-10-17T00:00:34.718Z,9.98
2022-10-17T00:03:01.798Z,6.90
2022-10-17T00:05:28.824Z,8.05
2022-10-17T00:07:55.875Z,9.02
2022-10-17T00:10:22.594Z,7.18
2022-10-17T00:12:51.540Z,5.68
2022-10-17T00:15:20.171Z,5.68
2022-10-17T00:17:47.134Z,6.97
2022-10-17T00:20:13.793Z,9.80
2022-10-17T00:22:40.887Z,6.88
2022-10-17T00:25:08.229Z,8.15
2022-10-17T00:27:38.255Z,8.00
2022-10-17T00:30:06.795Z,7.75
2022-10-17T00:32:33.507Z,8.40
2022-10-17T00:35:00.267Z,7.13
2022-10-17T00:37:27.013Z,10.63
2022-10-17T00:39:54.380Z,11.00
2022-10-17T00:42:21.081Z,8.50
2022-10-17T00:44:48.019Z,7.85
2022-10-17T00:47:19.887Z,13.05
2022-10-17T00:49:47.898Z,6.65
2022-10-17T00:52:19.596Z,10.75
2022-10-17T00:54:49.594Z,6.97
2022-10-17T00:57:17.570Z,9.35
2022-10-17T00:59:50.482Z,5.90
2022-10-17T01:02:19.508Z,8.75
2022-10-17T01:04:50.037Z,8.82
2022-10-17T01:07:16.939Z,8.77
2022-10-17T01:09:45.655Z,8.98
2022-10-17T01:12:27.455Z,5.00
2022-10-17T01:15:31.087Z,9.68
2022-10-17T01:18:14.811Z,10.60
2022-10-17T01:20:47.331Z,6.43
2022-10-17T01:23:43.290Z,6.13
2022-10-17T01:26:30.923Z,6.38
2022-10-17T01:29:15.210Z,9.38
2022-10-17T01:31:55.769Z,6.32
2022-10-17T01:34:32.949Z,6.97
2022-10-17T01:37:16.154Z,8.57
2022-10-17T01:39:48.171Z,12.73
2022-10-17T01:42:33.510Z,7.35
2022-10-17T01:45:25.591Z,9.73
2022-10-17T01:47:54.401Z,8.15
2022-10-17T01:50:28.002Z,5.97
2022-10-17T01:53:02.083Z,6.20
2022-10-17T01:55:42.408Z,10.98
2022-10-17T01:58:17.499Z,7.00
2022-10-17T02:00:45.478Z,7.25
2022-10-17T02:03:17.687Z,7.80
2022-10-17T02:08:11.530Z,9.45
2022-10-17T02:11:03.001Z,7.60
2022-10-17T02:14:07.163Z,11.50
2022-10-17T02:17:03.589Z,9.88
2022-10-17T02:19:39.083Z,7.20
2022-10-17T02:22:16.878Z,7.93
2022-10-17T02:25:01.863Z,8.68
2022-10-17T02:27:34.608Z,6.15
2022-10-17T02:30:24.019Z,8.90
2022-10-17T02:33:00.004Z,8.27
2022-10-17T02:35:31.522Z,8.10
2022-10-17T02:37:59.916Z,12.85
2022-10-17T02:40:29.719Z,8.00
2022-10-17T02:42:58.550Z,5.85
2022-10-17T02:45:28.064Z,8.18
2022-10-17T02:48:03.554Z,9.25
2022-10-17T02:51:00.824Z,8.73
2022-10-17T02:53:34.914Z,6.28
2022-10-17T02:56:08.530Z,6.90
2022-10-17T02:58:37.584Z,8.75
2022-10-17T03:01:04.921Z,7.25
2022-10-17T03:03:32.733Z,7.75
2022-10-17T03:05:59.450Z,6.00
2022-10-17T03:08:26.801Z,6.03
2022-10-17T03:10:53.591Z,9.45
2022-10-17T03:13:20.919Z,7.03
2022-10-17T03:15:48.024Z,5.82
2022-10-17T03:18:14.761Z,8.75
2022-10-17T03:20:41.178Z,8.02
2022-10-17T03:23:07.886Z,5.95
2022-10-17T03:25:35.866Z,6.90
2022-10-17T03:28:02.425Z,6.82
2022-10-17T03:30:29.466Z,8.07
2022-10-17T03:32:58.221Z,5.07
2022-10-17T03:35:25.661Z,4.93
2022-10-17T03:37:52.595Z,4.80
2022-10-17T03:40:19.074Z,6.03
2022-10-17T03:42:45.815Z,4.45
2022-10-17T03:45:12.594Z,5.70
2022-10-17T03:47:39.415Z,5.13
2022-10-17T03:50:06.407Z,8.52
2022-10-17T03:52:33.274Z,7.00
2022-10-17T03:55:03.528Z,4.40
2022-10-17T03:57:30.407Z,5.90
2022-10-17T03:59:59.349Z,5.45
2022-10-17T04:02:26.052Z,6.65
2022-10-17T04:04:54.057Z,5.97
2022-10-17T04:07:20.635Z,7.25
2022-10-17T04:09:48.440Z,3.33
2022-10-17T04:12:14.949Z,6.68
2022-10-17T04:14:41.413Z,4.63
2022-10-17T04:17:08.099Z,4.78
2022-10-17T04:19:35.211Z,6.15
2022-10-17T04:22:03.439Z,3.65
2022-10-17T04:24:30.522Z,4.28
2022-10-17T04:26:57.771Z,5.75
2022-10-17T04:29:25.909Z,7.32
2022-10-17T04:31:52.732Z,5.00
2022-10-17T04:34:19.704Z,7.53
2022-10-17T04:36:47.236Z,5.35
2022-10-17T04:41:42.362Z,14.70
2022-10-17T04:44:10.678Z,5.85
2022-10-17T04:46:37.347Z,5.38
2022-10-17T04:49:03.959Z,7.18
2022-10-17T04:51:30.908Z,4.63
2022-10-17T04:53:58.476Z,4.40
2022-10-17T04:56:25.712Z,5.97
2022-10-17T04:58:52.643Z,7.75
2022-10-17T05:01:22.580Z,4.30
2022-10-17T05:04:02.503Z,3.95
2022-10-17T05:06:29.267Z,4.43
2022-10-17T05:08:56.089Z,8.27
2022-10-17T05:11:25.748Z,5.35
2022-10-17T05:13:54.721Z,5.32
2022-10-17T05:16:22.103Z,5.28
2022-10-17T05:18:53.831Z,4.72
2022-10-17T05:21:21.732Z,3.60
2022-10-17T05:23:48.393Z,4.32
2022-10-17T05:26:15.442Z,5.15
2022-10-17T05:28:42.403Z,4.07
2022-10-17T05:31:11.034Z,5.20
2022-10-17T05:33:39.055Z,5.10
2022-10-17T05:36:06.448Z,4.45
2022-10-17T05:38:33.228Z,5.00
2022-10-17T05:41:00.931Z,7.07
2022-10-17T05:43:28.224Z,5.28
2022-10-17T05:45:55.296Z,6.63
2022-10-17T05:48:23.035Z,5.35
2022-10-17T05:50:50.240Z,4.30
2022-10-17T05:53:17.475Z,4.50
2022-10-17T05:55:45.366Z,6.72
2022-10-17T05:58:21.731Z,4.70
2022-10-17T06:00:49.156Z,4.45
2022-10-17T06:03:15.719Z,5.50
2022-10-17T06:05:42.419Z,5.85
2022-10-17T06:08:09.040Z,7.78
2022-10-17T06:10:35.854Z,5.00
2022-10-17T06:13:02.569Z,7.00
2022-10-17T06:15:29.726Z,6.07
2022-10-17T06:17:56.842Z,5.80
2022-10-17T06:20:23.596Z,7.15
2022-10-17T06:22:51.621Z,5.72
2022-10-17T06:25:18.165Z,5.38
2022-10-17T06:27:44.933Z,5.15
2022-10-17T06:30:12.181Z,6.05
2022-10-17T06:32:38.935Z,5.60
2022-10-17T06:35:06.046Z,4.25
2022-10-17T06:37:36.450Z,5.32
2022-10-17T06:40:04.302Z,5.55
2022-10-17T06:42:31.008Z,4.22
2022-10-17T06:45:00.440Z,6.97
2022-10-17T06:47:27.367Z,5.18
2022-10-17T06:49:54.116Z,5.07
2022-10-17T06:52:21.642Z,4.05
2022-10-17T06:54:48.584Z,5.75
2022-10-17T06:57:16.102Z,4.78
2022-10-17T06:59:43.539Z,4.05
2022-10-17T07:02:10.962Z,6.47
2022-10-17T07:04:38.224Z,7.82
2022-10-17T07:07:06.015Z,3.63
2022-10-17T07:09:33.078Z,3.63
2022-10-17T07:12:00.574Z,3.90
2022-10-17T07:14:31.992Z,3.78
2022-10-17T07:16:59.864Z,4.32
2022-10-17T07:19:29.636Z,5.55
2022-10-17T07:21:56.807Z,4.35
2022-10-17T07:24:24.579Z,5.50
2022-10-17T07:26:51.198Z,4.55
2022-10-17T07:29:17.611Z,3.05
2022-10-17T07:31:45.608Z,3.17
2022-10-17T07:34:12.098Z,5.18
2022-10-17T07:36:38.795Z,5.90
2022-10-17T07:39:05.872Z,3.08
2022-10-17T07:41:32.447Z,3.55
2022-10-17T07:43:59.158Z,4.10
2022-10-17T07:46:25.730Z,6.03
2022-10-17T07:48:52.292Z,3.70
2022-10-17T07:51:20.282Z,4.72
2022-10-17T07:53:48.818Z,3.53
2022-10-17T07:56:17.638Z,5.22
2022-10-17T07:58:44.145Z,4.57
2022-10-17T08:01:15.517Z,3.88
2022-10-17T08:06:12.176Z,3.40
2022-10-17T08:08:39.183Z,5.18
2022-10-17T08:11:08.138Z,4.78
2022-10-17T08:13:35.174Z,3.38
2022-10-17T08:16:03.644Z,5.97
2022-10-17T08:18:30.532Z,4.03
2022-10-17T08:21:00.779Z,3.40
2022-10-17T08:23:30.009Z,3.90
2022-10-17T08:25:59.832Z,4.28
2022-10-17T08:28:26.565Z,4.20
2022-10-17T08:30:52.970Z,2.97
2022-10-17T08:33:19.389Z,3.30
2022-10-17T08:35:46.266Z,6.05
2022-10-17T08:38:13.513Z,4.32
2022-10-17T08:40:42.826Z,3.20
2022-10-17T08:43:35.377Z,4.75
2022-10-17T08:46:05.319Z,4.18
2022-10-17T08:48:46.723Z,3.88
2022-10-17T08:51:24.726Z,3.30
2022-10-17T08:54:22.289Z,3.90
2022-10-17T08:56:51.247Z,3.60
2022-10-17T08:59:28.469Z,3.78
2022-10-17T09:02:48.094Z,5.68
2022-10-17T09:05:33.394Z,4.10
2022-10-17T09:08:17.545Z,5.13
2022-10-17T09:10:57.021Z,3.58
2022-10-17T09:14:02.268Z,7.03
2022-10-17T09:16:43.908Z,6.45
2022-10-17T09:19:31.572Z,4.53
2022-10-17T09:22:05.853Z,5.13
2022-10-17T09:24:48.338Z,5.13
2022-10-17T09:27:24.095Z,4.88
2022-10-17T09:29:57.616Z,3.60
2022-10-17T09:32:25.571Z,2.50
2022-10-17T09:34:53.946Z,4.43
2022-10-17T09:37:25.565Z,6.22
2022-10-17T09:39:52.481Z,6.60
2022-10-17T09:42:21.761Z,5.78
2022-10-17T09:45:19.613Z,7.60
2022-10-17T09:48:02.062Z,5.90
2022-10-17T09:50:34.352Z,3.63
2022-10-17T09:53:10.061Z,3.88
2022-10-17T09:55:43.276Z,3.97
2022-10-17T09:58:10.883Z,5.40
2022-10-17T10:00:44.208Z,4.65
2022-10-17T10:03:25.251Z,4.05
2022-10-17T10:06:01.327Z,5.18
2022-10-17T10:08:36.603Z,4.07
2022-10-17T10:11:06.585Z,4.22
2022-10-17T10:13:35.368Z,5.20
2022-10-17T10:16:14.061Z,5.50
2022-10-17T10:18:40.529Z,3.83
2022-10-17T10:21:16.547Z,5.00
2022-10-17T10:23:45.477Z,9.02
2022-10-17T10:26:22.461Z,5.93
2022-10-17T10:29:01.843Z,4.70
2022-10-17T10:31:43.007Z,5.93
2022-10-17T10:34:22.323Z,5.85
2022-10-17T10:37:01.107Z,4.40
2022-10-17T10:39:47.834Z,5.00
2022-10-17T10:42:25.512Z,6.20
2022-10-17T10:44:54.152Z,4.45
2022-10-17T10:47:22.626Z,5.72
2022-10-17T10:49:52.755Z,3.20
2022-10-17T10:52:41.754Z,5.22
2022-10-17T10:55:32.327Z,4.55
2022-10-17T10:58:03.941Z,4.80
2022-10-17T11:00:34.869Z,4.25
2022-10-17T11:03:16.186Z,3.70
2022-10-17T11:05:58.017Z,7.22
2022-10-17T11:09:11.108Z,6.22
2022-10-17T11:11:45.607Z,5.63
2022-10-17T11:14:39.013Z,3.92
2022-10-17T11:17:24.109Z,5.35
2022-10-17T11:20:10.538Z,4.32
2022-10-17T11:23:13.974Z,4.20
2022-10-17T11:25:41.379Z,6.88
2022-10-17T11:28:18.034Z,4.65
2022-10-17T11:31:04.539Z,4.90
2022-10-17T11:33:50.785Z,5.30
2022-10-17T11:36:22.735Z,7.93
2022-10-17T11:39:00.113Z,3.80
2022-10-17T11:41:43.717Z,5.22
2022-10-17T11:44:35.132Z,4.55
2022-10-17T11:47:29.792Z,7.47
2022-10-17T11:53:03.840Z,4.88
2022-10-17T11:55:34.294Z,5.97
2022-10-17T11:58:39.072Z,6.45
2022-10-17T12:02:03.116Z,3.67
2022-10-17T12:04:49.669Z,4.60
2022-10-17T12:07:33.656Z,5.47
2022-10-17T12:10:20.776Z,5.25
2022-10-17T12:12:49.521Z,5.28
2022-10-17T12:15:25.349Z,3.80
2022-10-17T12:18:03.389Z,6.13
2022-10-17T12:20:31.253Z,5.72
2022-10-17T12:23:13.341Z,5.95
2022-10-17T12:25:58.256Z,6.10
2022-10-17T12:28:45.744Z,7.15
2022-10-17T12:31:23.164Z,7.50
2022-10-17T12:33:58.271Z,5.25
2022-10-17T12:36:28.133Z,6.47
2022-10-17T12:39:11.750Z,5.72
2022-10-17T12:41:38.692Z,8.82
2022-10-17T12:44:14.741Z,6.70
2022-10-17T12:47:10.933Z,8.48
2022-10-17T12:49:55.770Z,9.55
2022-10-17T12:52:32.762Z,7.97
2022-10-17T12:55:13.130Z,8.68
2022-10-17T12:57:49.828Z,6.93
2022-10-17T13:00:35.947Z,12.13
2022-10-17T13:03:31.248Z,10.98
2022-10-17T13:06:01.364Z,9.13
2022-10-17T13:08:33.904Z,8.35
2022-10-17T13:11:01.560Z,7.95
2022-10-17T13:13:41.909Z,10.45
2022-10-17T13:16:08.948Z,11.68
2022-10-17T13:18:36.014Z,7.13
2022-10-17T13:21:15.864Z,12.23
2022-10-17T13:23:42.508Z,7.65
2022-10-17T13:26:23.909Z,6.93
2022-10-17T13:29:07.322Z,7.30
2022-10-17T13:31:37.228Z,9.63
2022-10-17T13:34:07.124Z,7.57
2022-10-17T13:36:35.786Z,13.98
2022-10-17T13:39:13.693Z,15.05
2022-10-17T13:41:42.021Z,14.63
2022-10-17T13:44:19.481Z,13.10
2022-10-17T13:46:46.807Z,10.25
2022-10-17T13:49:41.623Z,15.95
2022-10-17T13:52:26.367Z,14.25
2022-10-17T13:54:56.424Z,13.15
2022-10-17T13:57:29.695Z,16.00
2022-10-17T14:00:12.409Z,13.55
2022-10-17T14:02:41.474Z,13.52
2022-10-17T14:05:17.117Z,18.58
2022-10-17T14:10:43.488Z,15.80
2022-10-17T14:13:26.258Z,12.52
2022-10-17T14:15:56.018Z,13.48
2022-10-17T14:18:33.428Z,15.40
2022-10-17T14:23:51.766Z,14.48
2022-10-17T14:26:23.732Z,15.77
2022-10-17T14:29:25.614Z,16.52
2022-10-17T14:32:02.872Z,16.75
2022-10-17T14:34:33.802Z,14.00
2022-10-17T14:37:02.306Z,15.27
2022-10-17T14:39:29.492Z,13.85
2022-10-17T14:41:57.910Z,15.07
2022-10-17T14:44:29.267Z,15.77
2022-10-17T14:47:00.225Z,17.13
2022-10-17T14:49:34.080Z,16.80
2022-10-17T14:52:33.881Z,13.57
2022-10-17T14:55:20.657Z,13.48
2022-10-17T14:57:47.183Z,15.10
2022-10-17T15:00:16.662Z,15.73
2022-10-17T15:02:43.307Z,12.90
2022-10-17T15:05:18.259Z,15.85
2022-10-17T15:07:44.960Z,19.83
2022-10-17T15:10:44.998Z,17.08
2022-10-17T15:13:27.797Z,15.07
2022-10-17T15:15:55.142Z,16.10
2022-10-17T15:18:22.548Z,15.80
2022-10-17T15:20:55.352Z,15.13
2022-10-17T15:23:32.474Z,19.77
2022-10-17T15:25:58.925Z,16.65
2022-10-17T15:28:25.478Z,19.70
2022-10-17T15:30:52.137Z,19.15
2022-10-17T15:33:18.736Z,18.00
2022-10-17T15:36:00.200Z,18.33
2022-10-17T15:38:26.695Z,17.75
2022-10-17T15:40:53.241Z,16.30
2022-10-17T15:43:20.247Z,16.40
2022-10-17T15:45:47.208Z,18.38
2022-10-17T15:48:23.410Z,20.92
2022-10-17T15:50:49.871Z,17.30
2022-10-17T15:53:16.469Z,17.48
2022-10-17T15:55:42.867Z,18.20
2022-10-17T15:58:15.191Z,22.75
2022-10-17T16:00:42.087Z,21.88
2022-10-17T16:03:10.979Z,16.38
2022-10-17T16:05:37.763Z,18.08
2022-10-17T16:08:04.371Z,19.67
2022-10-17T16:10:30.827Z,18.33
2022-10-17T16:12:58.034Z,16.77
2022-10-17T16:15:26.645Z,20.38
2022-10-17T16:17:55.867Z,20.80
2022-10-17T16:20:24.163Z,22.60
2022-10-17T16:22:51.222Z,20.15
2022-10-17T16:25:21.393Z,18.42
2022-10-17T16:27:50.350Z,18.08
2022-10-17T16:30:17.555Z,19.75
2022-10-17T16:32:44.649Z,19.73
2022-10-17T16:35:18.883Z,19.73
2022-10-17T16:37:45.649Z,20.08
2022-10-17T16:40:12.142Z,19.20
2022-10-17T16:42:38.564Z,21.15
2022-10-17T16:45:05.562Z,24.00
2022-10-17T16:47:32.247Z,20.65
2022-10-17T16:49:58.728Z,21.13
2022-10-17T16:52:25.507Z,21.05
2022-10-17T16:54:51.987Z,20.23
2022-10-17T16:57:19.277Z,22.40
2022-10-17T16:59:45.750Z,24.55
2022-10-17T17:02:17.570Z,23.35
2022-10-17T17:04:47.177Z,22.27
2022-10-17T17:07:14.441Z,19.15
2022-10-17T17:09:47.888Z,21.60
2022-10-17T17:12:16.141Z,22.63
2022-10-17T17:14:43.229Z,24.45
2022-10-17T17:17:19.386Z,23.63
2022-10-17T17:19:56.735Z,22.33
2022-10-17T17:22:23.127Z,22.10
2022-10-17T17:27:15.907Z,24.25
2022-10-17T17:29:42.501Z,25.58
2022-10-17T17:32:09.011Z,24.77
2022-10-17T17:34:36.966Z,22.27
2022-10-17T17:37:03.867Z,22.70
2022-10-17T17:39:30.440Z,26.42
2022-10-17T17:41:56.821Z,24.05
2022-10-17T17:44:23.204Z,21.95
2022-10-17T17:46:49.683Z,22.88
2022-10-17T17:49:16.135Z,24.02
2022-10-17T17:51:46.150Z,23.92
2022-10-17T17:54:13.069Z,23.63
2022-10-17T17:56:39.646Z,25.48
2022-10-17T17:59:06.139Z,24.48
2022-10-17T18:01:39.094Z,24.65
2022-10-17T18:04:08.877Z,26.38
2022-10-17T18:06:36.479Z,22.48
2022-10-17T18:09:04.072Z,24.60
2022-10-17T18:11:30.881Z,24.38
2022-10-17T18:14:03.895Z,24.85
2022-10-17T18:16:32.480Z,23.52
2022-10-17T18:19:04.060Z,25.80
2022-10-17T18:21:33.771Z,24.63
2022-10-17T18:24:00.218Z,24.38
2022-10-17T18:26:27.083Z,23.70
2022-10-17T18:28:53.821Z,26.33
2022-10-17T18:31:25.007Z,29.08
2022-10-17T18:33:52.957Z,25.33
2022-10-17T18:36:19.751Z,24.70
2022-10-17T18:38:46.204Z,21.25
2022-10-17T18:41:18.704Z,20.25
2022-10-17T18:43:46.772Z,15.10
2022-10-17T18:46:19.572Z,13.75
2022-10-17T18:48:47.326Z,11.55
2022-10-17T18:51:15.883Z,9.30
2022-10-17T18:53:44.753Z,8.82
2022-10-17T18:56:12.655Z,9.20
2022-10-17T18:58:40.286Z,5.80
2022-10-17T19:01:10.175Z,7.38
2022-10-17T19:03:37.226Z,8.77
2022-10-17T19:06:07.356Z,11.23
2022-10-17T19:08:34.769Z,8.27
2022-10-17T19:11:11.485Z,9.13
2022-10-17T19:13:38.211Z,9.20
2022-10-17T19:16:13.283Z,12.38
2022-10-17T19:18:40.214Z,9.88
2022-10-17T19:21:11.567Z,5.95
2022-10-17T19:23:39.066Z,6.30
2022-10-17T19:26:10.373Z,7.65
2022-10-17T19:28:39.907Z,8.67
2022-10-17T19:31:14.098Z,6.13
2022-10-17T19:33:43.488Z,6.18
2022-10-17T19:36:11.303Z,6.35
2022-10-17T19:38:37.855Z,6.35
2022-10-17T19:41:09.968Z,6.53
2022-10-17T19:46:07.731Z,8.02
2022-10-17T19:48:36.783Z,5.30
2022-10-17T19:51:05.114Z,6.55
2022-10-17T19:53:33.590Z,11.07
2022-10-17T19:56:00.955Z,8.68
2022-10-17T19:58:27.981Z,8.73
2022-10-17T20:00:57.253Z,8.20
2022-10-17T20:03:29.573Z,7.70
2022-10-17T20:05:58.366Z,7.30
2022-10-17T20:10:52.336Z,10.10
2022-10-17T20:13:18.907Z,7.68
2022-10-17T20:15:56.060Z,9.80
2022-10-17T20:18:24.420Z,7.93
2022-10-17T20:20:50.919Z,10.73
2022-10-17T20:23:17.855Z,7.57
2022-10-17T20:25:45.560Z,8.00
2022-10-17T20:28:12.459Z,6.03
2022-10-17T20:30:46.635Z,6.57
2022-10-17T20:33:15.494Z,6.90
2022-10-17T20:35:43.302Z,5.45
2022-10-17T20:38:12.334Z,7.20
2022-10-17T20:40:39.432Z,8.98
2022-10-17T20:43:08.253Z,4.82
2022-10-17T20:45:50.611Z,6.35
2022-10-17T20:48:18.470Z,6.10
2022-10-17T20:50:45.331Z,5.15
2022-10-17T20:56:09.167Z,4.68
2022-10-17T20:58:36.038Z,4.97
2022-10-17T21:01:10.612Z,6.20
2022-10-17T21:03:42.383Z,6.50
2022-10-17T21:06:16.318Z,6.80
2022-10-17T21:08:45.237Z,6.18
2022-10-17T21:11:18.355Z,4.25
2022-10-17T21:16:18.093Z,6.03
2022-10-17T21:18:45.156Z,7.55
2022-10-17T21:21:28.925Z,8.40
2022-10-17T21:23:58.511Z,5.68
2022-10-17T21:26:25.206Z,11.38
2022-10-17T21:28:51.877Z,6.50
2022-10-17T21:31:21.685Z,6.00
2022-10-17T21:33:51.231Z,6.97
2022-10-17T21:36:19.036Z,5.28
2022-10-17T21:38:47.752Z,6.80
2022-10-17T21:41:19.669Z,6.05
2022-10-17T21:43:48.943Z,4.93
2022-10-17T21:46:18.485Z,7.85
2022-10-17T21:48:49.091Z,7.82
2022-10-17T21:51:17.468Z,7.35
2022-10-17T21:53:44.749Z,6.53
2022-10-17T21:56:21.423Z,7.13
2022-10-17T21:58:48.683Z,9.15
2022-10-17T22:01:19.156Z,7.47
2022-10-17T22:03:50.047Z,6.43
2022-10-17T22:09:15.749Z,6.30
2022-10-17T22:11:45.696Z,6.63
2022-10-17T22:14:16.303Z,6.50
2022-10-17T22:16:45.046Z,8.05
2022-10-17T22:19:13.324Z,7.15
2022-10-17T22:21:41.560Z,7.43
2022-10-17T22:24:13.914Z,12.05
2022-10-17T22:26:44.255Z,10.35
2022-10-17T22:29:12.006Z,9.45
2022-10-17T22:31:39.851Z,9.32
2022-10-17T22:34:07.301Z,11.32
2022-10-17T22:36:35.957Z,15.38
2022-10-17T22:39:03.208Z,11.68
2022-10-17T22:41:30.717Z,7.65
2022-10-17T22:43:58.919Z,9.68
2022-10-17T22:46:26.443Z,9.38
2022-10-17T22:48:54.388Z,9.32
2022-10-17T22:51:21.633Z,11.18
2022-10-17T22:53:49.032Z,12.43
2022-10-17T22:56:18.966Z,13.98
2022-10-17T22:58:46.722Z,12.63
2022-10-17T23:01:16.830Z,16.50
2022-10-17T23:03:43.688Z,13.32
2022-10-17T23:06:10.640Z,17.42
2022-10-17T23:08:37.471Z,14.23
2022-10-17T23:11:05.193Z,14.00
2022-10-17T23:13:32.374Z,18.95
2022-10-17T23:15:59.867Z,14.32
2022-10-17T23:20:57.729Z,15.55
2022-10-17T23:23:24.621Z,15.65
2022-10-17T23:25:51.802Z,18.23
2022-10-17T23:28:18.407Z,19.85
2022-10-17T23:30:45.531Z,18.40
2022-10-17T23:33:13.612Z,16.40
2022-10-17T23:35:41.021Z,16.75
2022-10-17T23:38:07.833Z,19.48
2022-10-17T23:40:35.576Z,22.00
2022-10-17T23:43:03.451Z,21.02
2022-10-17T23:45:34.727Z,19.98
2022-10-17T23:48:04.148Z,21.02
2022-10-17T23:50:30.709Z,18.73
2022-10-17T23:52:57.392Z,19.60
2022-10-17T23:55:24.368Z,20.95
2022-10-17T23:57:51.665Z,23.75
